Time;durP1;ratioP1;P1;durP2;ratioP2;P2;SDS_P1;SDS_P2;PMS_P1;PMS_P2;Temp;Humidity;BMP_temperature;BMP_pressure;BME280_temperature;BME280_humidity;BME280_pressure;Samples;Min_cycle;Max_cycle;Signal;HPM_P1;HPM_P2
2021/09/06 00:00:27;;;;;;;;;;;;;;;23.14;41.95;101656.56;5065953;28;1353;-47
2021/09/06 00:02:57;;;;;;;;;;;;;;;23.17;41.31;101663.50;5068263;28;1744;-48
2021/09/06 00:05:23;;;;;;;;;;;;;;;23.22;41.31;101666.66;5056235;28;1516;-47
2021/09/06 00:07:50;;;;;;;;;;;;;;;23.22;41.50;101669.34;5057340;28;1613;-48
2021/09/06 00:10:39;;;;;;;;;;;;;;;23.13;41.79;101673.72;5056080;28;1559;-47
2021/09/06 00:13:06;;;;;;;;;;;;;;;23.08;41.75;101670.63;5065180;28;1844;-47
2021/09/06 00:15:39;;;;;;;;;;;;;;;23.16;41.81;101678.00;5065370;28;1910;-48
2021/09/06 00:18:07;;;;;;;;;;;;;;;23.08;41.62;101675.16;5059782;28;1689;-48
2021/09/06 00:20:43;;;;;;;;;;;;;;;23.10;41.41;101681.25;5066674;28;1395;-48
2021/09/06 00:23:10;;;;;;;;;;;;;;;23.03;41.63;101678.28;5070397;28;1259;-48
2021/09/06 00:25:37;;;;;;;;;;;;;;;23.02;41.38;101681.97;5060299;28;1625;-48
2021/09/06 00:28:12;;;;;;;;;;;;;;;23.07;41.58;101689.63;5056775;28;1563;-47
2021/09/06 00:30:40;;;;;;;;;;;;;;;22.99;41.55;101677.66;5059850;28;1402;-48
2021/09/06 00:33:09;;;;;;;;;;;;;;;23.12;41.17;101684.66;5056872;28;1607;-47
2021/09/06 00:35:38;;;;;;;;;;;;;;;23.09;41.42;101696.59;5062375;28;1997;-48
2021/09/06 00:38:08;;;;;;;;;;;;;;;23.13;40.83;101699.88;5064717;28;1625;-48
2021/09/06 00:43:16;;;;;;;;;;;;;;;23.18;40.86;101706.56;5057485;28;2456;-47
2021/09/06 00:45:46;;;;;;;;;;;;;;;23.15;41.13;101712.22;5064068;28;1866;-48
2021/09/06 00:48:18;;;;;;;;;;;;;;;23.17;40.45;101710.22;5064285;28;1989;-48
2021/09/06 00:50:46;;;;;;;;;;;;;;;23.14;41.12;101709.66;5069185;28;1418;-48
2021/09/06 00:53:22;;;;;;;;;;;;;;;23.12;40.84;101703.53;5055373;28;1672;-49
2021/09/06 00:55:51;;;;;;;;;;;;;;;23.20;40.82;101706.41;5054307;28;1910;-48
2021/09/06 00:58:19;;;;;;;;;;;;;;;23.22;40.50;101705.28;5061102;28;1687;-47
2021/09/06 01:00:49;;;;;;;;;;;;;;;23.18;40.58;101701.16;5058457;28;1959;-48
2021/09/06 01:06:05;;;;;;;;;;;;;;;23.19;40.45;101696.59;5058748;28;2367;-48
2021/09/06 01:08:34;;;;;;;;;;;;;;;23.15;40.91;101703.28;5054797;28;1616;-47
2021/09/06 01:11:04;;;;;;;;;;;;;;;23.20;40.21;101706.41;5065730;28;1627;-49
2021/09/06 01:13:33;;;;;;;;;;;;;;;23.21;40.24;101705.41;5067620;28;1576;-47
2021/09/06 01:16:03;;;;;;;;;;;;;;;23.17;40.54;101709.38;5063374;28;1914;-48
2021/09/06 01:18:29;;;;;;;;;;;;;;;23.08;40.77;101712.91;5064505;28;1754;-47
2021/09/06 01:20:57;;;;;;;;;;;;;;;23.13;40.69;101716.91;5059640;28;1462;-48
2021/09/06 01:23:24;;;;;;;;;;;;;;;23.14;40.58;101706.94;5067182;28;1658;-47
2021/09/06 01:25:54;;;;;;;;;;;;;;;23.16;40.45;101722.03;5060780;28;1704;-48
2021/09/06 01:28:22;;;;;;;;;;;;;;;23.14;40.25;101715.03;5059842;28;1520;-48
2021/09/06 01:31:02;;;;;;;;;;;;;;;23.16;39.92;101722.03;5068991;28;1890;-47
2021/09/06 01:33:28;;;;;;;;;;;;;;;23.18;40.41;101701.16;5054914;28;1703;-47
2021/09/06 01:35:56;;;;;;;;;;;;;;;23.20;40.00;101706.41;5062560;28;1906;-48
2021/09/06 01:38:26;;;;;;;;;;;;;;;23.20;40.11;101717.22;5060605;28;1772;-47
2021/09/06 01:40:54;;;;;;;;;;;;;;;23.23;40.02;101717.75;5053323;28;1463;-48
2021/09/06 01:43:20;;;;;;;;;;;;;;;23.22;39.70;101717.94;5055966;28;1827;-47
2021/09/06 01:45:48;;;;;;;;;;;;;;;23.21;40.18;101729.69;5054037;28;1451;-49
2021/09/06 01:48:15;;;;;;;;;;;;;;;23.20;39.98;101728.84;5056304;28;1530;-48
2021/09/06 01:50:43;;;;;;;;;;;;;;;23.22;39.87;101720.63;5054825;28;1684;-48
2021/09/06 01:53:10;;;;;;;;;;;;;;;23.20;39.71;101717.22;5056297;28;1705;-48
2021/09/06 01:55:38;;;;;;;;;;;;;;;23.20;39.65;101718.06;5062992;28;1910;-47
2021/09/06 01:58:08;;;;;;;;;;;;;;;23.21;39.64;101718.91;5059468;28;1393;-48
2021/09/06 02:03:12;;;;;;;;;;;;;;;23.25;39.43;101714.94;4763968;26;2016;-48
2021/09/06 02:05:39;;;;;;;;;;;;;;;23.20;39.33;101719.91;5034224;28;1450;-46
2021/09/06 02:08:14;;;;;;;;;;;;;;;23.26;39.19;101724.75;5032630;28;1842;-47
2021/09/06 02:10:43;;;;;;;;;;;;;;;23.21;39.78;101730.53;5032413;28;1997;-47
2021/09/06 02:13:14;;;;;;;;;;;;;;;23.21;39.58;101718.91;5047137;28;1652;-47
2021/09/06 02:15:41;;;;;;;;;;;;;;;23.18;39.56;101730.84;5036922;28;1914;-47
2021/09/06 02:18:08;;;;;;;;;;;;;;;23.19;39.33;101718.19;5037061;28;1398;-47
2021/09/06 02:20:37;;;;;;;;;;;;;;;23.21;39.61;101730.53;5036959;28;1647;-46
2021/09/06 02:23:12;;;;;;;;;;;;;;;23.13;40.36;101738.47;5040405;28;1480;-47
2021/09/06 02:25:39;;;;;;;;;;;;;;;23.13;39.70;101732.25;5033934;28;1390;-47
2021/09/06 02:30:50;;;;;;;;;;;;;;;23.14;39.26;101725.84;5039978;28;1847;-47
2021/09/06 02:33:17;;;;;;;;;;;;;;;23.16;39.24;101731.97;5043469;28;1432;-47
2021/09/06 02:35:47;;;;;;;;;;;;;;;23.14;39.43;101732.13;5036975;28;1993;-47
2021/09/06 02:38:15;;;;;;;;;;;;;;;23.19;38.84;101758.66;5035604;28;1950;-47
2021/09/06 02:40:45;;;;;;;;;;;;;;;23.17;39.46;101733.66;5041930;28;1469;-47
2021/09/06 02:43:20;;;;;;;;;;;;;;;23.18;39.36;101762.38;5043063;28;1481;-47
2021/09/06 02:45:50;;;;;;;;;;;;;;;23.15;39.99;101754.53;5035817;28;1678;-47
2021/09/06 02:48:17;;;;;;;;;;;;;;;23.09;39.40;101737.06;5036264;28;1599;-47
2021/09/06 02:50:48;;;;;;;;;;;;;;;23.13;39.30;101735.78;5046203;28;1656;-47
2021/09/06 02:53:14;;;;;;;;;;;;;;;23.12;38.93;101750.28;5042205;28;1519;-48
2021/09/06 02:55:44;;;;;;;;;;;;;;;23.14;39.03;101751.00;5035586;28;1985;-47
2021/09/06 03:00:55;;;;;;;;;;;;;;;23.07;39.28;101746.28;5042741;28;2320;-47
2021/09/06 03:03:26;;;;;;;;;;;;;;;23.10;40.74;101743.31;5046890;28;1852;-46
2021/09/06 03:05:58;;;;;;;;;;;;;;;22.94;40.12;101755.47;5039952;28;1485;-46
2021/09/06 03:08:25;;;;;;;;;;;;;;;22.92;40.12;101746.66;5042292;28;11264;-46
2021/09/06 03:10:52;;;;;;;;;;;;;;;22.96;39.63;101748.09;5040290;28;1579;-46
2021/09/06 03:13:20;;;;;;;;;;;;;;;22.99;39.50;101761.28;5045017;28;1729;-49
2021/09/06 03:15:47;;;;;;;;;;;;;;;22.93;39.66;101742.09;5049095;28;1902;-47
2021/09/06 03:20:59;;;;;;;;;;;;;;;22.95;39.26;101757.16;5035147;28;2663;-46
2021/09/06 03:26:10;;;;;;;;;;;;;;;22.91;39.16;101760.28;5047567;28;2654;-46
2021/09/06 03:28:39;;;;;;;;;;;;;;;22.91;39.46;101755.72;5040861;28;1536;-48
2021/09/06 03:31:06;;;;;;;;;;;;;;;22.85;39.32;101756.28;5036065;28;1512;-46
2021/09/06 03:33:38;;;;;;;;;;;;;;;22.88;39.28;101763.22;5037253;28;1495;-46
2021/09/06 03:36:05;;;;;;;;;;;;;;;22.84;39.03;101754.59;5037726;28;1910;-48
2021/09/06 03:38:32;;;;;;;;;;;;;;;22.88;39.36;101763.22;5040524;28;1525;-47
2021/09/06 03:41:01;;;;;;;;;;;;;;;22.86;39.00;101773.31;5039453;28;1830;-46
2021/09/06 03:43:33;;;;;;;;;;;;;;;22.82;39.34;101768.19;5042135;28;1561;-47
2021/09/06 03:46:01;;;;;;;;;;;;;;;22.84;39.33;101770.78;5044323;28;1691;-47
2021/09/06 03:48:27;;;;;;;;;;;;;;;22.81;38.61;101787.22;5041802;28;1556;-47
2021/09/06 03:50:55;;;;;;;;;;;;;;;22.87;39.16;101789.34;5039591;28;1829;-47
2021/09/06 03:53:24;;;;;;;;;;;;;;;22.89;38.59;101790.06;5036768;28;1991;-47
2021/09/06 03:55:54;;;;;;;;;;;;;;;22.89;39.19;101779.28;5036027;28;1906;-47
2021/09/06 03:58:21;;;;;;;;;;;;;;;22.92;39.58;101784.41;5043482;28;11486;-47
2021/09/06 04:03:33;;;;;;;;;;;;;;;22.91;39.82;101782.69;5000803;28;1860;-47
2021/09/06 04:06:08;;;;;;;;;;;;;;;22.89;39.88;101781.97;5001886;28;1506;-47
2021/09/06 04:08:38;;;;;;;;;;;;;;;22.88;39.65;101787.50;5000399;28;1592;-47
2021/09/06 04:11:05;;;;;;;;;;;;;;;22.89;39.81;101798.16;5013072;28;1604;-47
2021/09/06 04:13:40;;;;;;;;;;;;;;;22.85;39.88;101796.72;5004137;28;1564;-47
2021/09/06 04:16:08;;;;;;;;;;;;;;;22.86;40.07;101790.38;5001378;28;1915;-47
2021/09/06 04:18:37;;;;;;;;;;;;;;;22.90;39.92;101807.09;4995218;28;1478;-48
2021/09/06 04:21:06;;;;;;;;;;;;;;;22.82;40.99;101807.81;5001489;28;1692;-49
2021/09/06 04:23:35;;;;;;;;;;;;;;;22.95;40.95;101794.91;5002981;28;1883;-47
2021/09/06 04:26:03;;;;;;;;;;;;;;;22.98;41.28;101802.75;5002177;28;1485;-47
2021/09/06 04:28:30;;;;;;;;;;;;;;;23.11;41.18;101818.72;5000483;28;1724;-47
2021/09/06 04:30:57;;;;;;;;;;;;;;;22.97;41.07;101801.03;5002685;28;1653;-47
2021/09/06 04:33:26;;;;;;;;;;;;;;;22.99;40.64;101809.00;5005683;28;1764;-47
2021/09/06 04:35:55;;;;;;;;;;;;;;;23.03;40.28;101823.94;4994539;28;2201;-47
2021/09/06 04:38:23;;;;;;;;;;;;;;;23.12;41.24;101816.88;4999918;28;1719;-47
2021/09/06 04:40:50;;;;;;;;;;;;;;;23.20;40.71;101825.16;5005271;28;1415;-48
2021/09/06 04:43:18;;;;;;;;;;;;;;;23.15;40.73;101828.25;4997836;28;1789;-47
2021/09/06 04:45:45;;;;;;;;;;;;;;;23.13;40.48;101835.63;5001831;28;1720;-48
2021/09/06 04:48:14;;;;;;;;;;;;;;;23.11;40.13;101840.31;5001773;28;1879;-48
2021/09/06 04:50:40;;;;;;;;;;;;;;;23.12;40.02;101841.16;5005621;28;1640;-47
2021/09/06 04:53:08;;;;;;;;;;;;;;;23.22;40.65;101840.22;5001454;28;1908;-47
2021/09/06 04:55:39;;;;;;;;;;;;;;;23.46;40.54;101832.72;5003723;28;1776;-47
2021/09/06 04:58:06;;;;;;;;;;;;;;;23.88;39.29;101833.38;4999346;28;1910;-48
2021/09/06 05:00:35;;;;;;;;;;;;;;;23.94;39.33;101826.56;4999959;28;1796;-47
2021/09/06 05:03:02;;;;;;;;;;;;;;;23.95;39.47;101839.06;5032410;28;1739;-47
2021/09/06 05:05:30;;;;;;;;;;;;;;;24.09;40.30;101827.81;5034315;28;1601;-49
2021/09/06 05:07:59;;;;;;;;;;;;;;;23.76;39.32;101835.34;5032388;28;1632;-48
2021/09/06 05:10:26;;;;;;;;;;;;;;;23.56;40.45;101845.25;5039208;28;1801;-48
2021/09/06 05:12:59;;;;;;;;;;;;;;;23.49;41.12;101848.66;5045146;28;1603;-48
2021/09/06 05:15:28;;;;;;;;;;;;;;;23.51;41.02;101838.56;5037877;28;1594;-49
2021/09/06 05:17:56;;;;;;;;;;;;;;;23.60;42.68;101843.13;5037733;28;1980;-48
2021/09/06 05:20:22;;;;;;;;;;;;;;;23.35;41.48;101839.94;5039640;28;1527;-47
2021/09/06 05:22:50;;;;;;;;;;;;;;;23.07;40.24;101840.72;5037267;28;1943;-47
2021/09/06 05:25:19;;;;;;;;;;;;;;;22.91;40.21;101852.81;5045984;28;1554;-48
2021/09/06 05:27:49;;;;;;;;;;;;;;;23.02;39.37;101852.78;5034906;28;1802;-48
2021/09/06 05:30:21;;;;;;;;;;;;;;;23.19;40.00;101856.66;5039250;28;1749;-48
2021/09/06 05:32:50;;;;;;;;;;;;;;;23.16;39.08;101845.31;5038389;28;1912;-48
2021/09/06 05:35:17;;;;;;;;;;;;;;;23.09;38.82;101844.97;5039537;28;2053;-48
2021/09/06 05:37:44;;;;;;;;;;;;;;;23.08;38.63;101845.09;5033854;28;2011;-47
2021/09/06 05:40:12;;;;;;;;;;;;;;;23.22;38.65;101837.50;5033966;28;1567;-48
2021/09/06 05:42:42;;;;;;;;;;;;;;;23.51;38.62;101835.88;5038295;28;1495;-48
2021/09/06 05:45:10;;;;;;;;;;;;;;;23.52;37.97;101851.94;5039527;28;1456;-48
2021/09/06 05:47:40;;;;;;;;;;;;;;;23.66;38.57;101844.44;5036877;28;1673;-47
2021/09/06 05:50:07;;;;;;;;;;;;;;;23.68;37.10;101837.03;5039468;28;1596;-48
2021/09/06 05:52:36;;;;;;;;;;;;;;;23.66;37.95;101845.28;5042115;28;1575;-52
2021/09/06 05:55:11;;;;;;;;;;;;;;;23.76;38.33;101848.84;5045355;28;1730;-48
2021/09/06 05:57:39;;;;;;;;;;;;;;;23.82;39.05;101845.59;5044399;28;1972;-48
2021/09/06 06:00:09;;;;;;;;;;;;;;;23.80;37.75;101842.19;5032040;28;1731;-48
2021/09/06 06:02:39;;;;;;;;;;;;;;;23.90;38.59;101854.84;5036610;28;1666;-47
2021/09/06 06:05:08;;;;;;;;;;;;;;;23.91;37.05;101848.44;5034014;28;1669;-47
2021/09/06 06:07:36;;;;;;;;;;;;;;;23.88;38.60;101843.34;5036488;28;1729;-48
2021/09/06 06:10:04;;;;;;;;;;;;;;;23.93;38.65;101850.00;5039942;28;1675;-48
2021/09/06 06:12:33;;;;;;;;;;;;;;;23.95;38.05;101852.56;5033305;28;1653;-48
2021/09/06 06:15:02;;;;;;;;;;;;;;;23.99;37.81;101849.47;5033764;28;1697;-48
2021/09/06 06:17:32;;;;;;;;;;;;;;;24.17;37.34;101851.41;5036927;28;1977;-48
2021/09/06 06:20:00;;;;;;;;;;;;;;;24.26;39.83;101849.72;5034156;28;1670;-48
2021/09/06 06:22:33;;;;;;;;;;;;;;;24.30;40.70;101848.44;5038081;28;1694;-47
2021/09/06 06:25:00;;;;;;;;;;;;;;;24.06;39.71;101862.41;5032245;28;1416;-48
2021/09/06 06:27:30;;;;;;;;;;;;;;;23.72;40.27;101869.03;5038562;28;1746;-47
2021/09/06 06:30:05;;;;;;;;;;;;;;;23.68;38.65;101872.16;5042528;28;1599;-48
2021/09/06 06:32:35;;;;;;;;;;;;;;;23.65;38.82;101870.56;5036132;28;1662;-49
2021/09/06 06:35:03;;;;;;;;;;;;;;;23.67;38.60;101865.03;5044464;28;1449;-50
2021/09/06 06:37:38;;;;;;;;;;;;;;;23.71;37.23;101875.41;5042115;28;1906;-48
2021/09/06 06:40:13;;;;;;;;;;;;;;;23.73;37.29;101877.97;5037300;28;1737;-49
2021/09/06 06:42:42;;;;;;;;;;;;;;;23.62;37.07;101878.97;5040346;28;1456;-48
2021/09/06 06:45:10;;;;;;;;;;;;;;;23.60;36.47;101880.94;5039983;28;2067;-48
2021/09/06 06:47:37;;;;;;;;;;;;;;;23.62;36.82;101892.47;5040330;28;1666;-50
2021/09/06 06:50:04;;;;;;;;;;;;;;;23.71;37.03;101890.75;5036907;28;1885;-50
2021/09/06 06:52:40;;;;;;;;;;;;;;;23.81;38.15;101891.66;5049423;28;1705;-50
2021/09/06 06:55:10;;;;;;;;;;;;;;;23.89;38.61;101899.06;5036212;28;1725;-50
2021/09/06 06:57:39;;;;;;;;;;;;;;;23.94;38.15;101878.75;5040048;28;1926;-50
2021/09/06 07:00:07;;;;;;;;;;;;;;;23.97;38.18;101873.06;5040937;28;1586;-50
2021/09/06 07:02:35;;;;;;;;;;;;;;;23.93;37.83;101895.09;5038090;28;1651;-49
2021/09/06 07:05:01;;;;;;;;;;;;;;;23.86;35.21;101897.50;5042551;28;1631;-48
2021/09/06 07:07:31;;;;;;;;;;;;;;;23.74;36.10;101883.22;5045662;28;1637;-49
2021/09/06 07:10:04;;;;;;;;;;;;;;;23.74;35.69;101877.84;5043957;28;1475;-49
2021/09/06 07:12:33;;;;;;;;;;;;;;;23.79;36.44;101880.97;5047867;28;1628;-48
2021/09/06 07:15:00;;;;;;;;;;;;;;;23.94;37.71;101886.84;5042576;28;1505;-47
2021/09/06 07:17:27;;;;;;;;;;;;;;;23.91;35.96;101883.56;5045781;28;2009;-48
2021/09/06 07:19:54;;;;;;;;;;;;;;;23.90;35.75;101871.91;5046882;28;1585;-49
2021/09/06 07:22:23;;;;;;;;;;;;;;;24.01;36.50;101879.00;5047247;28;1672;-48
2021/09/06 07:24:51;;;;;;;;;;;;;;;23.98;36.06;101879.31;5034716;28;1723;-49
2021/09/06 07:27:19;;;;;;;;;;;;;;;24.02;35.76;101883.44;5042046;28;1701;-49
2021/09/06 07:29:47;;;;;;;;;;;;;;;24.15;39.64;101894.81;5037206;28;1675;-51
2021/09/06 07:32:13;;;;;;;;;;;;;;;24.12;39.71;101876.19;5040110;28;1555;-50
2021/09/06 07:34:40;;;;;;;;;;;;;;;24.28;38.83;101896.38;5047208;28;1606;-50
2021/09/06 07:37:08;;;;;;;;;;;;;;;24.35;40.06;101892.09;5046387;28;1969;-49
2021/09/06 07:39:38;;;;;;;;;;;;;;;24.39;40.70;101877.28;5038877;28;1444;-50
2021/09/06 07:42:08;;;;;;;;;;;;;;;24.39;41.91;101905.19;5039499;28;1501;-50
2021/09/06 07:44:40;;;;;;;;;;;;;;;24.52;42.24;101893.25;5040042;28;1709;-50
2021/09/06 07:47:10;;;;;;;;;;;;;;;24.48;41.77;101898.06;5040135;28;1647;-50
2021/09/06 07:49:39;;;;;;;;;;;;;;;24.52;43.31;101902.22;5041493;28;1742;-50
2021/09/06 07:52:08;;;;;;;;;;;;;;;24.44;43.35;101884.97;5042186;28;1797;-50
2021/09/06 07:54:43;;;;;;;;;;;;;;;24.42;44.44;101899.47;5042575;28;1719;-50
2021/09/06 07:57:10;;;;;;;;;;;;;;;24.30;44.18;101900.63;5036618;28;1906;-50
2021/09/06 07:59:40;;;;;;;;;;;;;;;24.39;43.18;101894.38;5034267;28;1564;-50
2021/09/06 08:02:10;;;;;;;;;;;;;;;24.37;43.29;101909.03;5038029;28;1390;-50
2021/09/06 08:04:37;;;;;;;;;;;;;;;24.41;43.53;101891.50;5038166;28;1736;-50
2021/09/06 08:07:13;;;;;;;;;;;;;;;24.45;43.89;101887.53;5038063;28;1678;-50
2021/09/06 08:09:40;;;;;;;;;;;;;;;24.46;43.98;101893.81;5041635;28;1567;-51
2021/09/06 08:12:08;;;;;;;;;;;;;;;24.43;43.58;101894.91;5042997;28;1677;-50
2021/09/06 08:14:39;;;;;;;;;;;;;;;24.48;43.39;101913.44;5049595;28;1780;-50
2021/09/06 08:17:14;;;;;;;;;;;;;;;24.45;44.04;101909.16;5036382;28;1979;-50
2021/09/06 08:19:42;;;;;;;;;;;;;;;24.47;44.04;101899.06;5043826;28;1682;-50
2021/09/06 08:22:11;;;;;;;;;;;;;;;24.47;43.73;101890.97;5036152;28;1572;-50
2021/09/06 08:24:44;;;;;;;;;;;;;;;24.47;43.70;101896.38;5042872;28;1513;-50
2021/09/06 08:27:12;;;;;;;;;;;;;;;24.50;44.25;101897.91;5049417;28;1751;-50
2021/09/06 08:29:41;;;;;;;;;;;;;;;24.50;44.65;101912.31;5047039;28;1594;-50
2021/09/06 08:32:09;;;;;;;;;;;;;;;24.48;43.69;101892.66;5035919;28;1697;-50
2021/09/06 08:34:37;;;;;;;;;;;;;;;24.46;44.13;101883.84;5036657;28;1721;-50
2021/09/06 08:37:04;;;;;;;;;;;;;;;24.47;44.74;101904.47;5047472;28;1995;-50
2021/09/06 08:39:32;;;;;;;;;;;;;;;24.47;44.12;101906.31;5053244;28;1738;-51
2021/09/06 08:41:59;;;;;;;;;;;;;;;24.46;44.63;101894.66;5044346;28;2079;-50
2021/09/06 08:44:26;;;;;;;;;;;;;;;24.41;44.36;101878.88;5050555;28;1742;-50
2021/09/06 08:46:57;;;;;;;;;;;;;;;24.48;44.79;101894.50;5038269;28;1573;-51
2021/09/06 08:49:25;;;;;;;;;;;;;;;24.42;44.63;101885.97;5037625;28;1669;-50
2021/09/06 08:51:59;;;;;;;;;;;;;;;24.45;44.77;101900.19;5034012;28;1487;-50
2021/09/06 08:54:27;;;;;;;;;;;;;;;24.42;44.90;101888.66;5044712;28;1350;-50
2021/09/06 08:56:54;;;;;;;;;;;;;;;24.42;44.44;101890.53;5038714;28;1618;-50
2021/09/06 08:59:44;;;;;;;;;;;;;;;24.44;44.33;101903.91;5034389;28;1987;-50
2021/09/06 09:02:13;;;;;;;;;;;;;;;24.45;44.91;101892.94;5041783;28;1531;-51
2021/09/06 09:04:47;;;;;;;;;;;;;;;24.39;44.67;101878.16;5038780;28;1632;-50
2021/09/06 09:07:19;;;;;;;;;;;;;;;24.40;44.65;101892.53;5044759;28;1682;-50
2021/09/06 09:09:49;;;;;;;;;;;;;;;24.41;44.78;101886.09;5043785;28;1597;-50
2021/09/06 09:12:21;;;;;;;;;;;;;;;24.45;44.96;101894.78;5033641;28;1693;-50
2021/09/06 09:14:55;;;;;;;;;;;;;;;24.42;45.10;101868.91;5024233;28;1794;-50
2021/09/06 09:17:24;;;;;;;;;;;;;;;24.39;44.58;101851.13;5033700;28;1914;-50
2021/09/06 09:20:01;;;;;;;;;;;;;;;24.37;45.08;101860.34;5033158;28;1695;-50
2021/09/06 09:22:32;;;;;;;;;;;;;;;24.41;44.84;101869.88;5033085;28;1625;-50
2021/09/06 09:25:03;;;;;;;;;;;;;;;24.37;45.08;101863.06;5033030;28;1558;-51
2021/09/06 09:27:30;;;;;;;;;;;;;;;24.38;45.37;101878.28;5039108;28;1715;-50
2021/09/06 09:29:58;;;;;;;;;;;;;;;24.37;45.32;101858.53;5033366;28;1546;-50
2021/09/06 09:32:32;;;;;;;;;;;;;;;24.40;45.18;101863.63;5047550;28;1709;-50
2021/09/06 09:35:03;;;;;;;;;;;;;;;24.36;45.22;101862.22;5039672;28;1697;-50
2021/09/06 09:40:12;;;;;;;;;;;;;;;24.43;44.85;101881.41;5032822;28;2477;-50
2021/09/06 09:42:48;;;;;;;;;;;;;;;24.39;45.30;101861.94;5039559;28;1700;-50
2021/09/06 09:45:30;;;;;;;;;;;;;;;24.37;45.25;101863.94;5037776;28;1704;-50
2021/09/06 09:47:58;;;;;;;;;;;;;;;24.37;45.33;101861.22;5033047;28;1958;-50
2021/09/06 09:50:42;;;;;;;;;;;;;;;24.38;45.29;101851.25;5037170;28;1504;-50
2021/09/06 09:53:09;;;;;;;;;;;;;;;24.43;44.94;101857.06;5034968;28;1649;-51
2021/09/06 09:55:37;;;;;;;;;;;;;;;24.42;45.45;101847.28;5032758;28;1616;-51
2021/09/06 09:58:06;;;;;;;;;;;;;;;24.39;45.00;101861.94;5035104;28;1906;-50
2021/09/06 10:00:34;;;;;;;;;;;;;;;24.44;45.10;101852.53;5038530;28;1768;-50
2021/09/06 10:03:02;;;;;;;;;;;;;;;24.40;45.15;101846.56;5034631;28;1801;-50
2021/09/06 10:05:31;;;;;;;;;;;;;;;24.42;45.27;101853.53;5031938;28;1639;-51
2021/09/06 10:08:08;;;;;;;;;;;;;;;24.42;45.21;101847.28;5038918;28;1705;-50
2021/09/06 10:10:44;;;;;;;;;;;;;;;24.39;45.29;101842.13;5042459;28;1723;-51
2021/09/06 10:13:12;;;;;;;;;;;;;;;24.40;45.28;101849.25;5032055;28;1646;-50
2021/09/06 10:15:40;;;;;;;;;;;;;;;24.37;45.25;101847.72;5035318;28;1654;-50
2021/09/06 10:18:18;;;;;;;;;;;;;;;24.42;44.97;101855.38;5037921;28;1906;-50
2021/09/06 10:20:47;;;;;;;;;;;;;;;24.42;45.55;101863.50;5043554;28;1603;-50
2021/09/06 10:23:17;;;;;;;;;;;;;;;24.42;44.99;101852.69;5043255;28;1644;-50
2021/09/06 10:25:46;;;;;;;;;;;;;;;24.37;45.93;101854.94;5043485;28;1643;-50
2021/09/06 10:28:23;;;;;;;;;;;;;;;24.34;45.35;101834.47;5045491;28;1413;-50
2021/09/06 10:30:54;;;;;;;;;;;;;;;24.35;45.84;101844.31;5032564;28;1803;-50
2021/09/06 10:33:32;;;;;;;;;;;;;;;24.37;45.40;101826.09;5032782;28;2035;-50
2021/09/06 10:36:07;;;;;;;;;;;;;;;24.38;45.75;101838.59;5036978;28;1925;-50
2021/09/06 10:38:39;;;;;;;;;;;;;;;24.37;45.34;101847.72;5038699;28;1914;-50
2021/09/06 10:41:10;;;;;;;;;;;;;;;24.37;45.63;101822.50;5042906;28;1750;-51
2021/09/06 10:43:42;;;;;;;;;;;;;;;24.34;45.91;101825.53;5040581;28;1694;-51
2021/09/06 10:46:10;;;;;;;;;;;;;;;24.35;45.41;101835.31;5032446;28;1529;-50
2021/09/06 10:48:42;;;;;;;;;;;;;;;24.38;45.24;101832.34;5035114;28;1897;-50
2021/09/06 10:51:27;;;;;;;;;;;;;;;24.38;45.54;101816.97;5046856;28;1874;-51
2021/09/06 10:53:54;;;;;;;;;;;;;;;24.37;46.12;101830.63;5035185;28;1870;-50
2021/09/06 10:56:26;;;;;;;;;;;;;;;24.40;45.71;101827.63;5041548;28;1719;-50
2021/09/06 10:58:55;;;;;;;;;;;;;;;24.37;45.53;101836.91;5048095;28;1910;-51
2021/09/06 11:01:22;;;;;;;;;;;;;;;24.37;46.03;101827.91;5050598;28;1706;-51
2021/09/06 11:03:50;;;;;;;;;;;;;;;24.37;46.18;101828.78;5042199;28;1681;-50
2021/09/06 11:06:31;;;;;;;;;;;;;;;24.34;45.80;101814.72;5039577;28;1548;-50
2021/09/06 11:09:01;;;;;;;;;;;;;;;24.34;46.12;101830.94;5032570;28;1641;-50
2021/09/06 11:11:31;;;;;;;;;;;;;;;24.34;46.10;101828.22;5035907;28;1708;-50
2021/09/06 11:14:00;;;;;;;;;;;;;;;24.33;46.67;101819.28;5034340;28;1544;-50
2021/09/06 11:16:46;;;;;;;;;;;;;;;24.34;45.99;101810.13;5036125;28;1358;-50
2021/09/06 11:19:15;;;;;;;;;;;;;;;24.30;46.67;101813.28;5037913;28;1973;-50
2021/09/06 11:21:44;;;;;;;;;;;;;;;24.38;45.93;101794.50;5040929;28;1528;-50
2021/09/06 11:24:20;;;;;;;;;;;;;;;24.32;46.01;101790.50;5045733;28;1526;-50
2021/09/06 11:26:47;;;;;;;;;;;;;;;24.35;45.85;101792.94;5046270;28;1716;-50
2021/09/06 11:29:14;;;;;;;;;;;;;;;24.35;46.14;101783.94;5041047;28;1511;-50
2021/09/06 11:31:54;;;;;;;;;;;;;;;24.29;46.43;101784.53;5038492;28;1936;-50
2021/09/06 11:34:25;;;;;;;;;;;;;;;24.33;46.45;101780.53;5036019;28;1573;-50
2021/09/06 11:37:00;;;;;;;;;;;;;;;24.29;46.72;101780.00;5036984;28;1688;-50
2021/09/06 11:39:31;;;;;;;;;;;;;;;24.32;46.47;101782.41;5046851;28;1902;-50
2021/09/06 11:41:59;;;;;;;;;;;;;;;24.32;46.77;101782.41;5041595;28;1709;-50
2021/09/06 11:44:27;;;;;;;;;;;;;;;24.30;46.59;101770.88;5040994;28;1565;-51
2021/09/06 11:46:53;;;;;;;;;;;;;;;24.33;46.77;101765.19;5038927;28;1604;-51
2021/09/06 11:49:20;;;;;;;;;;;;;;;24.31;46.31;101760.91;5046207;28;1740;-50
2021/09/06 11:51:49;;;;;;;;;;;;;;;24.34;46.46;101783.09;5045411;28;1545;-50
2021/09/06 11:54:29;;;;;;;;;;;;;;;24.35;46.56;101767.72;5042655;28;1678;-50
2021/09/06 11:57:11;;;;;;;;;;;;;;;24.36;46.61;101764.03;5035598;28;1529;-51
2021/09/06 11:59:39;;;;;;;;;;;;;;;24.32;46.40;101758.06;5036003;28;2123;-50
2021/09/06 12:02:11;;;;;;;;;;;;;;;24.31;46.90;101758.22;5035388;28;1556;-50
2021/09/06 12:04:39;;;;;;;;;;;;;;;24.33;46.14;101767.03;5041856;28;1537;-50
2021/09/06 12:07:15;;;;;;;;;;;;;;;24.31;46.84;101740.16;5036546;28;1753;-50
2021/09/06 12:09:46;;;;;;;;;;;;;;;24.32;46.40;101747.25;5035136;28;1530;-51
2021/09/06 12:12:32;;;;;;;;;;;;;;;24.33;46.82;101740.00;5040052;28;1574;-50
2021/09/06 12:15:08;;;;;;;;;;;;;;;24.27;47.00;101744.13;5045139;28;1596;-51
2021/09/06 12:17:36;;;;;;;;;;;;;;;24.26;46.82;101734.34;5048288;28;1701;-50
2021/09/06 12:20:12;;;;;;;;;;;;;;;24.26;46.53;101739.75;5045340;28;1980;-50
2021/09/06 12:22:41;;;;;;;;;;;;;;;24.31;46.74;101745.56;5035693;28;1731;-50
2021/09/06 12:25:11;;;;;;;;;;;;;;;24.28;46.51;101747.72;5053054;28;1507;-50
2021/09/06 12:27:38;;;;;;;;;;;;;;;24.28;46.69;101735.03;5043462;28;1964;-50
2021/09/06 12:30:09;;;;;;;;;;;;;;;24.25;46.67;101738.03;5037028;28;1737;-50
2021/09/06 12:32:38;;;;;;;;;;;;;;;24.29;46.82;101733.19;5038162;28;1619;-50
2021/09/06 12:35:07;;;;;;;;;;;;;;;24.23;47.03;101721.09;5038135;28;1705;-50
2021/09/06 12:37:38;;;;;;;;;;;;;;;24.26;47.20;101731.63;5045219;28;1560;-50
2021/09/06 12:40:05;;;;;;;;;;;;;;;24.27;47.22;101727.91;5043100;28;1906;-50
2021/09/06 12:42:36;;;;;;;;;;;;;;;24.24;47.15;101730.94;5037731;28;1708;-50
2021/09/06 12:45:04;;;;;;;;;;;;;;;24.27;46.87;101727.06;5046045;28;1671;-50
2021/09/06 12:47:31;;;;;;;;;;;;;;;24.25;47.15;101729.06;5036768;28;1580;-50
2021/09/06 12:50:01;;;;;;;;;;;;;;;24.27;47.15;101714.41;5036272;28;1700;-50
2021/09/06 12:52:30;;;;;;;;;;;;;;;24.28;47.14;101728.78;5040616;28;1664;-50
2021/09/06 12:54:59;;;;;;;;;;;;;;;24.25;46.91;101712.84;5040890;28;1438;-50
2021/09/06 12:57:27;;;;;;;;;;;;;;;24.23;47.31;101707.59;5046478;28;1735;-49
2021/09/06 12:59:58;;;;;;;;;;;;;;;24.26;46.91;101711.88;5041475;28;2001;-50
2021/09/06 13:02:30;;;;;;;;;;;;;;;24.27;46.82;101727.06;5038555;28;1745;-50
2021/09/06 13:04:57;;;;;;;;;;;;;;;24.25;47.42;101685.81;5040427;28;1612;-50
2021/09/06 13:07:23;;;;;;;;;;;;;;;24.20;46.84;101692.53;5038033;28;1653;-50
2021/09/06 13:09:53;;;;;;;;;;;;;;;24.24;47.40;101714.72;5039951;28;1714;-50
2021/09/06 13:12:23;;;;;;;;;;;;;;;24.23;47.35;101691.38;5045206;28;1646;-50
2021/09/06 13:14:50;;;;;;;;;;;;;;;24.21;47.15;101696.94;5037534;28;1716;-49
2021/09/06 13:17:22;;;;;;;;;;;;;;;24.26;47.20;101709.16;5040549;28;1616;-50
2021/09/06 13:19:49;;;;;;;;;;;;;;;24.22;47.23;101704.03;5039033;28;1989;-50
2021/09/06 13:22:19;;;;;;;;;;;;;;;24.19;46.59;101693.53;5035643;28;1684;-50
2021/09/06 13:24:48;;;;;;;;;;;;;;;24.22;47.15;101700.50;5038165;28;1617;-50